• Join FlightAware (Why Join?)
  • Login
  • US Flag 
01:02PM EDT


 

Airport Tracker/Info


-or-


 

Live Flight TrackerFlight Track Log ✈ ASQ5401 ✈ 13-Jun-2013 ✈ KATL - KAGS

Flight Track Log - Related Links

Times and Time Zones

All times are in EDT time to prevent confusion due to time zone crossing. See the ASQ5401 flight status page for this flight to view local times or setup timezone preferences in your user account.

Time Position Orientation Groundspeed Altitude Reporting Facility
EDT Latitude Longitude Course Direction KTS MPH feet Rate Location/Type
02:21PM 33.6333 -84.4667 247° West 157 181 2,100  Level Atlanta TRACON
02:22PM 33.6181 -84.5103 247° West 348 400 2,700 1,620 Climbing Atlanta Center
02:23PM 33.5781 -84.5847 237° Southwest 310 357 5,100 2,400 Climbing Atlanta Center
02:24PM 33.5008 -84.5869 181° South 262 302 7,500 2,220 Climbing Atlanta Center
02:25PM 33.4531 -84.5069 126° Southeast 304 350 9,600 1,920 Climbing Atlanta Center
02:26PM 33.4556 -84.3947 88° East 311 358 11,400 1,620 Climbing Atlanta Center
02:27PM 33.4558 -84.2778 90° East 338 389 12,900 1,320 Climbing Atlanta Center
02:28PM 33.4747 -84.1533 80° East 361 415 14,100 1,200 Climbing Atlanta Center
02:29PM 33.4917 -84.0289 81° East 376 433 15,300 1,200 Climbing Atlanta Center
02:30PM 33.5103 -83.8994 80° East 386 444 16,500 900 Climbing Atlanta Center
02:31PM 33.5289 -83.7672 80° East 394 453 17,100 300 Climbing Atlanta Center
02:32PM 33.5472 -83.6225 81° East 422 486 17,100  Level Atlanta Center
02:33PM 33.5656 -83.4728 82° East 449 517 17,100  Level Atlanta Center
02:34PM 33.5794 -83.3381 83° East 455 524 17,100 -60 Level Atlanta Center
02:35PM 33.5992 -83.1858 81° East 460 529 17,000 -60 Descending Atlanta Center
02:36PM 33.6106 -83.0386 85° East 460 529 17,000 -300 Level Atlanta Center
02:37PM 33.6178 -82.8839 87° East 465 535 16,500 -1,200 Descending Atlanta Center
02:38PM 33.5808 -82.7422 107° East 448 516 14,600 -1,860 Descending Atlanta Center
02:39PM 33.5417 -82.6033 109° East 440 506 12,800 -1,860 Descending Atlanta Center
02:40PM 33.4939 -82.4594 112° Southeast 429 494 10,900 -1,320 Descending Atlanta Center
02:41PM 33.4694 -82.3406 104° East 392 451 10,200 -1,260 Descending Atlanta Center
02:42PM 33.4428 -82.2364 107° East 351 404 8,400 -1,860 Descending Atlanta Center
02:43PM 33.4164 -82.1425 109° East 321 369 6,500 -1,800 Descending Atlanta Center
02:44PM 33.4064 -82.0406 97° East 305 351 4,800 -1,500 Descending Atlanta Center
02:45PM 33.4239 -81.9556 76° East 277 319 3,600 -1,200 Descending Atlanta Center
02:47PM 33.3667 -81.9500 106° East  Level FlightAware Approximate
02:54PM 33.3699 -81.9645 106° East  Level Estimated
02:55PM 33.3699 -81.9645 106° East  Level Estimated
02:56PM 33.3699 -81.9645 106° East  Level Estimated
02:57PM 33.3699 -81.9645 106° East  Level Estimated